• Join FlightAware (Why Join?)
  • Login
  • US Flag 
06:02PM EDT


 

Airport Tracker/Info


-or-


 

Live Flight TrackerFlight Track Log ✈ FLG3314 ✈ 21-Oct-2013 ✈ KCVG - KDCA

Flight Track Log - Related Links

Times and Time Zones

All times are in EDT time to prevent confusion due to time zone crossing. See the FLG3314 flight status page for this flight to view local times or setup timezone preferences in your user account.

Time Position Orientation Groundspeed Altitude Reporting Facility
EDT Latitude Longitude Course Direction KTS MPH feet Rate Location/Type
04:05PM 39.0333 -84.6667 180° South 158 182 1,400  Level Cincinnati TRACON
04:06PM 39.0167 -84.6667 180° South 170 196 3,200 2,280 Climbing Cincinnati TRACON
04:07PM 38.9833 -84.6000 123° Southeast 243 280 5,100 2,220 Climbing Cincinnati TRACON
04:08PM 38.9667 -84.4833 100° East 299 344 7,700 2,460 Climbing Cincinnati TRACON
04:09PM 38.9394 -84.3464 104° East 321 369 11,300 2,280 Climbing Indianapolis Center
04:11PM 38.9131 -84.2233 105° East 357 411 13,200 1,980 Climbing Indianapolis Center
04:12PM 38.8850 -84.0886 105° East 386 444 15,500 2,100 Climbing Indianapolis Center
04:13PM 38.8531 -83.9483 106° East 406 467 17,600 2,220 Climbing Indianapolis Center
04:14PM 38.8142 -83.7750 106° East 421 484 20,200 2,160 Climbing Indianapolis Center
04:15PM 38.7806 -83.6228 106° East 442 509 22,100 1,320 Climbing Indianapolis Center
04:16PM 38.7458 -83.4672 106° East 454 522 23,000 420 Climbing Indianapolis Center
04:17PM 38.7083 -83.3064 107° East 469 540 23,000  Level Indianapolis Center
04:18PM 38.6700 -83.1297 105° East 479 551 23,000  Level Indianapolis Center
04:19PM 38.6297 -82.9578 107° East 482 555 23,000  Level Indianapolis Center
04:20PM 38.5922 -82.7936 106° East 481 554 23,000  Level Indianapolis Center
04:21PM 38.5481 -82.6050 107° East 474 545 23,000  Level Indianapolis Center
04:22PM 38.5108 -82.4478 107° East 474 545 23,000  Level Indianapolis Center
04:23PM 38.4728 -82.2867 107° East 477 549 23,000  Level Indianapolis Center
04:24PM 38.4342 -82.1250 107° East 478 550 23,000  Level Indianapolis Center
04:25PM 38.3953 -81.9642 107° East 477 549 23,000  Level Indianapolis Center
04:26PM 38.3583 -81.8056 106° East 472 543 23,000  Level Indianapolis Center
04:27PM 38.3444 -81.6033 95° East 488 562 23,000  Level Indianapolis Center
04:28PM 38.3389 -81.4336 92° East 486 559 23,000  Level Indianapolis Center
04:29PM 38.3328 -81.2631 93° East 487 560 23,000  Level Indianapolis Center
04:30PM 38.3258 -81.0925 93° East 488 562 23,000  Level Indianapolis Center
04:31PM 38.3186 -80.8864 92° East 486 559 23,000  Level Indianapolis Center
04:32PM 38.3122 -80.7164 93° East 488 562 23,000  Level Indianapolis Center
04:33PM 38.3064 -80.5456 92° East 485 558 23,000  Level Indianapolis Center
04:34PM 38.2983 -80.3783 93° East 477 549 23,000  Level Indianapolis Center
04:35PM 38.2917 -80.2083 93° East 480 552 23,000  Level Indianapolis Center
04:36PM 38.2836 -80.0261 93° East 478 550 23,000  Level Indianapolis Center
04:37PM 38.2761 -79.8617 93° East 478 550 23,000  Level Indianapolis Center
04:38PM 38.2936 -79.6653 83° East 488 562 23,000  Level Indianapolis Center
04:39PM 38.3453 -79.5122 67° East 483 556 23,000  Level Indianapolis Center
04:41PM 38.3981 -79.3600 66° East 482 555 23,000  Level Indianapolis Center
04:42PM 38.4400 -79.2075 71° East 478 550 23,000  Level Washington Center
04:43PM 38.4700 -79.0392 77° East 478 550 23,000 -480 Level Washington Center
04:44PM 38.5003 -78.8522 78° East 478 550 22,100 -1,200 Descending Washington Center
04:45PM 38.5253 -78.6886 79° East 483 556 20,600 -1,560 Descending Washington Center
04:46PM 38.5503 -78.5306 79° East 478 550 19,100 -1,320 Descending Washington Center
04:47PM 38.5747 -78.3747 79° East 459 528 18,000 -1,020 Descending Washington Center
04:48PM 38.6053 -78.2272 75° East 438 504 17,100 -1,020 Descending Washington Center
04:49PM 38.6456 -78.0931 69° East 413 475 16,000 -1,320 Descending Washington Center
04:50PM 38.6856 -77.9694 67° East 395 455 14,500 -1,500 Descending Washington Center
04:51PM 38.7256 -77.8483 67° East 376 433 13,100 -1,500 Descending Washington Center
04:52PM 38.7769 -77.7644 52° Northeast 339 390 11,600 -1,080 Descending Washington Center
04:53PM 38.8347 -77.6811 48° Northeast 317 365 11,000 -660 Descending Washington Center
04:53PM 38.8667 -77.6167 58° Northeast 317 365 10,600 -1,800 Descending Potomac TRACON
04:54PM 38.9333 -77.5333 44° Northeast 306 352 8,300 -1,680 Descending Potomac TRACON
04:55PM 38.9667 -77.4333 67° East 290 334 7,100 -660 Descending Potomac TRACON
04:56PM 39.0167 -77.3500 52° Northeast 285 328 7,000 -240 Descending Potomac TRACON
04:57PM 39.0833 -77.3000 30° Northeast 286 329 6,700 -1,020 Descending Potomac TRACON
04:58PM 39.1000 -77.2333 72° East 284 327 5,100 -1,860 Descending Potomac TRACON
04:59PM 39.0333 -77.1833 150° Southeast 237 273 3,200 -1,200 Descending Potomac TRACON
05:00PM 38.9833 -77.1500 153° Southeast 203 234 2,700 -600 Descending Potomac TRACON
05:01PM 38.9333 -77.1167 153° Southeast 175 201 2,100 -720 Descending Potomac TRACON
05:02PM 38.9000 -77.0833 142° Southeast 164 189 1,300 -780 Descending Potomac TRACON
05:03PM 38.8833 -77.0500 123° Southeast 135 155 600 -720 Descending Potomac TRACON
05:05PM 38.8519 -77.0377 180° South  Level Estimated
05:12PM 38.8500 -77.0333 North  Level FlightAware Approximate
05:13PM 38.8519 -77.0377 North  Level Estimated
05:14PM 38.8500 -77.0333 North  Level FlightAware Approximate